sensor_id;sensor_type;location;lat;lon;timestamp;pressure;altitude;pressure_sealevel;temperature;humidity
40155;BME280;25875;48.202;16.334;2023-03-11T00:00:59;97020.38;;;9.73;45.54
40155;BME280;25875;48.202;16.334;2023-03-11T00:03:27;97004.66;;;9.72;45.44
40155;BME280;25875;48.202;16.334;2023-03-11T00:05:54;96981.78;;;9.51;45.49
40155;BME280;25875;48.202;16.334;2023-03-11T00:08:24;96956.09;;;9.32;45.69
40155;BME280;25875;48.202;16.334;2023-03-11T00:10:53;97002.22;;;9.49;45.57
40155;BME280;25875;48.202;16.334;2023-03-11T00:13:21;97033.88;;;9.70;45.58
40155;BME280;25875;48.202;16.334;2023-03-11T00:15:50;97035.41;;;9.73;45.41
40155;BME280;25875;48.202;16.334;2023-03-11T00:18:20;97031.25;;;9.70;45.61
40155;BME280;25875;48.202;16.334;2023-03-11T00:20:50;97036.09;;;9.65;45.65
40155;BME280;25875;48.202;16.334;2023-03-11T00:23:17;97073.25;;;9.63;45.75
40155;BME280;25875;48.202;16.334;2023-03-11T00:25:45;97009.41;;;9.38;45.70
40155;BME280;25875;48.202;16.334;2023-03-11T00:28:14;97031.34;;;9.59;45.57
40155;BME280;25875;48.202;16.334;2023-03-11T00:30:42;97052.91;;;9.54;45.75
40155;BME280;25875;48.202;16.334;2023-03-11T00:33:11;97060.53;;;9.48;45.90
40155;BME280;25875;48.202;16.334;2023-03-11T00:35:37;97070.72;;;9.31;46.14
40155;BME280;25875;48.202;16.334;2023-03-11T00:38:06;96824.56;;;7.74;47.61
40155;BME280;25875;48.202;16.334;2023-03-11T00:40:34;97111.44;;;9.40;49.35
40155;BME280;25875;48.202;16.334;2023-03-11T00:43:03;97067.97;;;9.12;49.74
40155;BME280;25875;48.202;16.334;2023-03-11T00:45:30;97121.38;;;9.16;49.67
40155;BME280;25875;48.202;16.334;2023-03-11T00:47:58;97131.63;;;9.09;50.57
40155;BME280;25875;48.202;16.334;2023-03-11T00:50:27;97149.47;;;8.96;50.63
40155;BME280;25875;48.202;16.334;2023-03-11T00:52:54;97043.09;;;8.31;50.54
40155;BME280;25875;48.202;16.334;2023-03-11T00:55:22;97030.25;;;8.06;50.31
40155;BME280;25875;48.202;16.334;2023-03-11T00:57:51;97143.28;;;8.86;50.80
40155;BME280;25875;48.202;16.334;2023-03-11T01:00:22;97155.78;;;8.84;51.30
40155;BME280;25875;48.202;16.334;2023-03-11T01:02:49;97169.84;;;8.84;50.79
40155;BME280;25875;48.202;16.334;2023-03-11T01:05:18;97165.63;;;8.82;50.82
40155;BME280;25875;48.202;16.334;2023-03-11T01:07:45;97189.66;;;8.79;51.07
40155;BME280;25875;48.202;16.334;2023-03-11T01:10:12;97166.81;;;8.57;50.62
40155;BME280;25875;48.202;16.334;2023-03-11T01:12:39;97205.69;;;8.66;50.71
40155;BME280;25875;48.202;16.334;2023-03-11T01:15:08;97190.53;;;8.68;50.83
40155;BME280;25875;48.202;16.334;2023-03-11T01:17:36;97195.88;;;8.57;50.48
40155;BME280;25875;48.202;16.334;2023-03-11T01:20:03;97209.91;;;8.57;50.22
40155;BME280;25875;48.202;16.334;2023-03-11T01:22:33;97209.31;;;8.54;50.30
40155;BME280;25875;48.202;16.334;2023-03-11T01:25:00;97210.41;;;8.51;50.08
40155;BME280;25875;48.202;16.334;2023-03-11T01:27:26;97192.41;;;8.45;49.63
40155;BME280;25875;48.202;16.334;2023-03-11T01:29:54;97166.06;;;8.23;49.55
40155;BME280;25875;48.202;16.334;2023-03-11T01:32:20;97191.69;;;8.43;49.44
40155;BME280;25875;48.202;16.334;2023-03-11T01:34:48;97205.03;;;8.42;49.21
40155;BME280;25875;48.202;16.334;2023-03-11T01:37:15;97118.25;;;8.05;49.18
40155;BME280;25875;48.202;16.334;2023-03-11T01:39:44;97193.50;;;8.43;48.91
40155;BME280;25875;48.202;16.334;2023-03-11T01:42:11;97145.34;;;8.07;48.32
40155;BME280;25875;48.202;16.334;2023-03-11T01:44:38;97176.59;;;8.34;48.07
40155;BME280;25875;48.202;16.334;2023-03-11T01:47:34;97200.84;;;8.28;46.91
40155;BME280;25875;48.202;16.334;2023-03-11T01:50:06;97230.25;;;8.23;47.04
40155;BME280;25875;48.202;16.334;2023-03-11T01:52:34;97223.41;;;8.21;47.24
40155;BME280;25875;48.202;16.334;2023-03-11T01:55:01;97115.31;;;7.54;47.33
40155;BME280;25875;48.202;16.334;2023-03-11T01:57:28;97190.69;;;7.79;46.69
40155;BME280;25875;48.202;16.334;2023-03-11T01:59:57;97270.78;;;8.11;46.29
40155;BME280;25875;48.202;16.334;2023-03-11T02:02:29;97120.69;;;7.41;45.83
40155;BME280;25875;48.202;16.334;2023-03-11T02:04:58;97241.88;;;7.98;45.81
40155;BME280;25875;48.202;16.334;2023-03-11T02:07:28;97264.53;;;7.90;45.20
40155;BME280;25875;48.202;16.334;2023-03-11T02:09:55;97246.66;;;7.82;43.99
40155;BME280;25875;48.202;16.334;2023-03-11T02:12:22;97269.66;;;7.69;42.85
40155;BME280;25875;48.202;16.334;2023-03-11T02:14:51;97268.91;;;7.56;42.71
40155;BME280;25875;48.202;16.334;2023-03-11T02:17:19;97176.56;;;7.11;43.54
40155;BME280;25875;48.202;16.334;2023-03-11T02:20:05;97236.31;;;7.11;40.62
40155;BME280;25875;48.202;16.334;2023-03-11T02:22:39;97252.63;;;7.27;42.65
40155;BME280;25875;48.202;16.334;2023-03-11T02:25:10;97248.22;;;7.27;42.45
40155;BME280;25875;48.202;16.334;2023-03-11T02:27:46;97218.66;;;7.00;42.19
40155;BME280;25875;48.202;16.334;2023-03-11T02:30:15;97269.75;;;7.21;42.89
40155;BME280;25875;48.202;16.334;2023-03-11T02:32:42;97297.50;;;7.14;42.39
40155;BME280;25875;48.202;16.334;2023-03-11T02:35:13;97269.53;;;7.00;42.78
40155;BME280;25875;48.202;16.334;2023-03-11T02:37:43;97277.06;;;6.94;42.91
40155;BME280;25875;48.202;16.334;2023-03-11T02:40:34;97295.59;;;6.92;41.52
40155;BME280;25875;48.202;16.334;2023-03-11T02:43:05;97089.38;;;5.49;42.43
40155;BME280;25875;48.202;16.334;2023-03-11T02:45:35;97301.22;;;6.75;42.30
40155;BME280;25875;48.202;16.334;2023-03-11T02:48:05;97267.19;;;6.48;43.05
40155;BME280;25875;48.202;16.334;2023-03-11T02:50:34;97212.97;;;6.22;42.74
40155;BME280;25875;48.202;16.334;2023-03-11T02:53:02;97294.13;;;6.52;42.49
40155;BME280;25875;48.202;16.334;2023-03-11T02:55:29;97273.22;;;6.37;42.31
40155;BME280;25875;48.202;16.334;2023-03-11T02:57:57;97280.63;;;6.07;42.74
40155;BME280;25875;48.202;16.334;2023-03-11T03:00:26;97242.06;;;5.95;42.01
40155;BME280;25875;48.202;16.334;2023-03-11T03:02:54;97322.81;;;6.31;42.55
40155;BME280;25875;48.202;16.334;2023-03-11T03:05:22;97312.38;;;6.29;42.60
40155;BME280;25875;48.202;16.334;2023-03-11T03:07:49;97312.38;;;6.29;42.46
40155;BME280;25875;48.202;16.334;2023-03-11T03:10:17;97296.72;;;6.28;42.42
40155;BME280;25875;48.202;16.334;2023-03-11T03:12:47;97301.97;;;6.28;42.40
40155;BME280;25875;48.202;16.334;2023-03-11T03:15:13;97309.84;;;6.28;42.45
40155;BME280;25875;48.202;16.334;2023-03-11T03:17:43;97261.09;;;5.86;42.34
40155;BME280;25875;48.202;16.334;2023-03-11T03:20:11;97291.06;;;5.96;42.73
40155;BME280;25875;48.202;16.334;2023-03-11T03:22:40;97293.78;;;5.94;42.62
40155;BME280;25875;48.202;16.334;2023-03-11T03:25:09;97322.50;;;6.10;42.58
40155;BME280;25875;48.202;16.334;2023-03-11T03:27:36;97333.22;;;6.07;42.94
40155;BME280;25875;48.202;16.334;2023-03-11T03:30:05;97331.25;;;6.10;42.65
40155;BME280;25875;48.202;16.334;2023-03-11T03:32:33;97334.28;;;6.04;42.70
40155;BME280;25875;48.202;16.334;2023-03-11T03:35:01;97337.88;;;6.03;42.90
40155;BME280;25875;48.202;16.334;2023-03-11T03:37:32;97242.78;;;5.21;42.85
40155;BME280;25875;48.202;16.334;2023-03-11T03:39:59;97355.63;;;6.00;43.38
40155;BME280;25875;48.202;16.334;2023-03-11T03:42:27;97349.44;;;6.01;43.07
40155;BME280;25875;48.202;16.334;2023-03-11T03:44:53;97222.19;;;5.27;42.76
40155;BME280;25875;48.202;16.334;2023-03-11T03:47:21;97348.38;;;6.03;42.93
40155;BME280;25875;48.202;16.334;2023-03-11T03:49:48;97359.75;;;6.04;42.92
40155;BME280;25875;48.202;16.334;2023-03-11T03:52:16;97352.06;;;6.01;42.69
40155;BME280;25875;48.202;16.334;2023-03-11T03:54:43;97260.13;;;5.23;42.92
40155;BME280;25875;48.202;16.334;2023-03-11T03:57:10;97362.69;;;5.99;42.48
40155;BME280;25875;48.202;16.334;2023-03-11T03:59:37;97354.38;;;5.93;42.30
40155;BME280;25875;48.202;16.334;2023-03-11T04:02:04;97317.75;;;5.64;42.62
40155;BME280;25875;48.202;16.334;2023-03-11T04:04:32;97353.22;;;5.84;42.53
40155;BME280;25875;48.202;16.334;2023-03-11T04:06:59;97276.13;;;5.45;42.32
40155;BME280;25875;48.202;16.334;2023-03-11T04:09:28;97356.78;;;5.83;42.28
40155;BME280;25875;48.202;16.334;2023-03-11T04:11:55;97285.56;;;5.35;42.01
40155;BME280;25875;48.202;16.334;2023-03-11T04:14:21;97184.75;;;4.59;42.38
40155;BME280;25875;48.202;16.334;2023-03-11T04:16:48;97385.88;;;5.67;42.08
40155;BME280;25875;48.202;16.334;2023-03-11T04:19:15;97358.34;;;5.60;42.02
40155;BME280;25875;48.202;16.334;2023-03-11T04:21:42;97067.69;;;3.77;41.96
40155;BME280;25875;48.202;16.334;2023-03-11T04:24:10;97375.56;;;5.52;41.53
40155;BME280;25875;48.202;16.334;2023-03-11T04:26:38;97338.91;;;5.23;41.36
40155;BME280;25875;48.202;16.334;2023-03-11T04:29:05;97332.88;;;5.08;41.20
40155;BME280;25875;48.202;16.334;2023-03-11T04:31:32;97373.00;;;5.37;41.45
40155;BME280;25875;48.202;16.334;2023-03-11T04:33:58;97383.50;;;5.37;41.32
40155;BME280;25875;48.202;16.334;2023-03-11T04:36:25;97368.97;;;5.32;40.81
40155;BME280;25875;48.202;16.334;2023-03-11T04:38:54;97373.38;;;5.31;40.29
40155;BME280;25875;48.202;16.334;2023-03-11T04:41:21;97386.81;;;5.27;41.13
40155;BME280;25875;48.202;16.334;2023-03-11T04:43:49;97389.66;;;5.24;41.05
40155;BME280;25875;48.202;16.334;2023-03-11T04:46:15;97371.56;;;5.19;40.71
40155;BME280;25875;48.202;16.334;2023-03-11T04:48:42;97376.91;;;5.18;40.96
40155;BME280;25875;48.202;16.334;2023-03-11T04:51:09;97296.19;;;4.80;40.77
40155;BME280;25875;48.202;16.334;2023-03-11T04:53:36;97368.28;;;5.16;40.61
40155;BME280;25875;48.202;16.334;2023-03-11T04:56:03;97364.28;;;5.10;40.06
40155;BME280;25875;48.202;16.334;2023-03-11T04:58:30;97365.63;;;5.03;40.36
40155;BME280;25875;48.202;16.334;2023-03-11T05:00:58;97211.38;;;4.11;40.13
40155;BME280;25875;48.202;16.334;2023-03-11T05:03:25;97387.41;;;4.91;40.35
40155;BME280;25875;48.202;16.334;2023-03-11T05:05:51;97378.94;;;4.86;40.31
40155;BME280;25875;48.202;16.334;2023-03-11T05:08:21;97396.47;;;4.85;40.64
40155;BME280;25875;48.202;16.334;2023-03-11T05:10:50;97397.31;;;4.86;40.52
40155;BME280;25875;48.202;16.334;2023-03-11T05:13:17;97384.38;;;4.82;40.62
40155;BME280;25875;48.202;16.334;2023-03-11T05:15:44;97398.34;;;4.83;40.76
40155;BME280;25875;48.202;16.334;2023-03-11T05:18:13;97380.72;;;4.85;40.47
40155;BME280;25875;48.202;16.334;2023-03-11T05:20:40;97393.94;;;4.84;40.36
40155;BME280;25875;48.202;16.334;2023-03-11T05:23:07;97397.78;;;4.78;40.48
40155;BME280;25875;48.202;16.334;2023-03-11T05:25:34;97407.16;;;4.82;40.23
40155;BME280;25875;48.202;16.334;2023-03-11T05:28:01;97385.53;;;4.78;40.22
40155;BME280;25875;48.202;16.334;2023-03-11T05:30:28;97383.63;;;4.80;40.49
40155;BME280;25875;48.202;16.334;2023-03-11T05:32:55;97280.09;;;4.16;40.07
40155;BME280;25875;48.202;16.334;2023-03-11T05:35:23;97388.78;;;4.82;40.44
40155;BME280;25875;48.202;16.334;2023-03-11T05:37:50;97393.94;;;4.84;40.43
40155;BME280;25875;48.202;16.334;2023-03-11T05:40:18;97324.88;;;4.42;39.77
40155;BME280;25875;48.202;16.334;2023-03-11T05:42:45;97388.34;;;4.75;39.82
40155;BME280;25875;48.202;16.334;2023-03-11T05:45:12;97315.72;;;4.21;40.01
40155;BME280;25875;48.202;16.334;2023-03-11T05:47:40;97376.63;;;4.67;40.22
40155;BME280;25875;48.202;16.334;2023-03-11T05:50:09;97380.56;;;4.60;39.81
40155;BME280;25875;48.202;16.334;2023-03-11T05:52:38;97319.22;;;4.20;40.22
40155;BME280;25875;48.202;16.334;2023-03-11T05:55:05;97375.34;;;4.60;40.33
40155;BME280;25875;48.202;16.334;2023-03-11T05:57:33;97391.06;;;4.60;40.21
40155;BME280;25875;48.202;16.334;2023-03-11T06:00:00;97403.63;;;4.55;40.18
40155;BME280;25875;48.202;16.334;2023-03-11T06:02:28;97347.53;;;4.29;39.94
40155;BME280;25875;48.202;16.334;2023-03-11T06:04:55;97383.78;;;4.51;40.00
40155;BME280;25875;48.202;16.334;2023-03-11T06:07:22;97380.97;;;4.54;40.06
40155;BME280;25875;48.202;16.334;2023-03-11T06:09:53;97374.69;;;4.56;40.11
40155;BME280;25875;48.202;16.334;2023-03-11T06:12:19;97377.88;;;4.61;40.43
40155;BME280;25875;48.202;16.334;2023-03-11T06:14:46;97401.94;;;4.68;40.15
40155;BME280;25875;48.202;16.334;2023-03-11T06:17:13;97249.03;;;3.96;40.37
40155;BME280;25875;48.202;16.334;2023-03-11T06:19:40;97382.16;;;4.76;40.40
40155;BME280;25875;48.202;16.334;2023-03-11T06:22:07;97389.34;;;4.87;40.13
40155;BME280;25875;48.202;16.334;2023-03-11T06:24:33;97382.69;;;4.96;40.01
40155;BME280;25875;48.202;16.334;2023-03-11T06:27:02;97371.34;;;4.95;39.70
40155;BME280;25875;48.202;16.334;2023-03-11T06:29:29;97378.66;;;5.04;39.97
40155;BME280;25875;48.202;16.334;2023-03-11T06:31:56;97372.50;;;5.18;39.86
40155;BME280;25875;48.202;16.334;2023-03-11T06:34:23;97253.41;;;4.65;39.61
40155;BME280;25875;48.202;16.334;2023-03-11T06:36:49;97305.97;;;5.05;39.60
40155;BME280;25875;48.202;16.334;2023-03-11T06:39:16;97417.94;;;5.60;39.04
40155;BME280;25875;48.202;16.334;2023-03-11T06:41:43;97329.34;;;5.22;39.12
40155;BME280;25875;48.202;16.334;2023-03-11T06:44:11;97372.34;;;5.73;39.02
40155;BME280;25875;48.202;16.334;2023-03-11T06:46:38;97355.22;;;5.81;39.14
40155;BME280;25875;48.202;16.334;2023-03-11T06:49:05;97252.72;;;5.03;38.71
40155;BME280;25875;48.202;16.334;2023-03-11T06:51:33;97371.84;;;6.06;38.80
40155;BME280;25875;48.202;16.334;2023-03-11T06:54:00;97379.00;;;6.30;38.59
40155;BME280;25875;48.202;16.334;2023-03-11T06:56:27;97367.19;;;6.48;38.23
40155;BME280;25875;48.202;16.334;2023-03-11T06:58:53;97401.28;;;6.62;37.68
40155;BME280;25875;48.202;16.334;2023-03-11T07:01:22;97286.41;;;6.12;37.57
40155;BME280;25875;48.202;16.334;2023-03-11T07:03:50;97376.22;;;6.82;37.73
40155;BME280;25875;48.202;16.334;2023-03-11T07:06:19;97379.31;;;7.00;37.62
40155;BME280;25875;48.202;16.334;2023-03-11T07:08:47;97365.03;;;7.15;37.68
40155;BME280;25875;48.202;16.334;2023-03-11T07:11:17;97286.47;;;6.72;37.12
40155;BME280;25875;48.202;16.334;2023-03-11T07:13:44;97292.25;;;6.78;37.11
40155;BME280;25875;48.202;16.334;2023-03-11T07:16:13;97379.25;;;7.49;36.54
40155;BME280;25875;48.202;16.334;2023-03-11T07:18:43;97283.16;;;6.58;36.27
40155;BME280;25875;48.202;16.334;2023-03-11T07:21:14;97383.03;;;7.69;36.57
40155;BME280;25875;48.202;16.334;2023-03-11T07:23:43;97394.44;;;7.69;35.89
40155;BME280;25875;48.202;16.334;2023-03-11T07:26:12;97400.81;;;7.78;36.65
40155;BME280;25875;48.202;16.334;2023-03-11T07:28:40;97432.50;;;7.89;36.33
40155;BME280;25875;48.202;16.334;2023-03-11T07:31:10;97362.53;;;7.61;35.84
40155;BME280;25875;48.202;16.334;2023-03-11T07:33:37;97412.03;;;8.04;35.88
40155;BME280;25875;48.202;16.334;2023-03-11T07:36:07;97488.09;;;8.10;35.60
40155;BME280;25875;48.202;16.334;2023-03-11T07:38:35;97398.25;;;8.00;36.41
40155;BME280;25875;48.202;16.334;2023-03-11T07:41:02;97447.97;;;8.40;35.65
40155;BME280;25875;48.202;16.334;2023-03-11T07:43:30;97459.75;;;8.47;35.75
40155;BME280;25875;48.202;16.334;2023-03-11T07:46:05;97462.66;;;8.55;35.19
40155;BME280;25875;48.202;16.334;2023-03-11T07:48:32;97258.31;;;7.33;33.31
40155;BME280;25875;48.202;16.334;2023-03-11T07:51:01;97502.66;;;8.73;35.70
40155;BME280;25875;48.202;16.334;2023-03-11T07:53:30;97475.41;;;8.84;35.46
40155;BME280;25875;48.202;16.334;2023-03-11T07:55:57;97405.41;;;8.45;35.41
40155;BME280;25875;48.202;16.334;2023-03-11T07:58:24;97351.25;;;8.17;35.81
40155;BME280;25875;48.202;16.334;2023-03-11T08:00:51;97455.72;;;8.99;35.41
40155;BME280;25875;48.202;16.334;2023-03-11T08:03:19;97508.84;;;9.41;35.49
40155;BME280;25875;48.202;16.334;2023-03-11T08:05:46;97490.09;;;9.44;35.18
40155;BME280;25875;48.202;16.334;2023-03-11T08:08:13;97465.94;;;9.26;35.30
40155;BME280;25875;48.202;16.334;2023-03-11T08:10:41;97504.59;;;9.60;34.94
40155;BME280;25875;48.202;16.334;2023-03-11T08:13:08;97513.00;;;9.66;34.81
40155;BME280;25875;48.202;16.334;2023-03-11T08:15:35;97519.84;;;9.79;35.06
40155;BME280;25875;48.202;16.334;2023-03-11T08:18:04;97505.09;;;9.98;34.75
40155;BME280;25875;48.202;16.334;2023-03-11T08:20:31;97524.63;;;10.17;34.61
40155;BME280;25875;48.202;16.334;2023-03-11T08:22:58;97538.00;;;10.16;34.20
40155;BME280;25875;48.202;16.334;2023-03-11T08:25:25;97527.53;;;10.14;34.57
40155;BME280;25875;48.202;16.334;2023-03-11T08:27:53;97535.69;;;10.22;34.51
40155;BME280;25875;48.202;16.334;2023-03-11T08:30:20;97553.94;;;10.37;34.30
40155;BME280;25875;48.202;16.334;2023-03-11T08:32:47;97361.84;;;9.38;33.99
40155;BME280;25875;48.202;16.334;2023-03-11T08:35:15;97551.88;;;10.40;34.35
40155;BME280;25875;48.202;16.334;2023-03-11T08:37:42;97560.53;;;10.42;33.86
40155;BME280;25875;48.202;16.334;2023-03-11T08:40:10;97550.63;;;10.44;34.68
40155;BME280;25875;48.202;16.334;2023-03-11T08:42:37;97336.66;;;9.23;34.13
40155;BME280;25875;48.202;16.334;2023-03-11T08:45:07;97556.78;;;10.66;33.96
40155;BME280;25875;48.202;16.334;2023-03-11T08:47:35;97541.50;;;10.90;33.89
40155;BME280;25875;48.202;16.334;2023-03-11T08:50:02;97484.28;;;10.67;33.18
40155;BME280;25875;48.202;16.334;2023-03-11T08:52:29;97568.56;;;11.14;32.08
40155;BME280;25875;48.202;16.334;2023-03-11T08:54:56;97489.47;;;10.68;32.94
40155;BME280;25875;48.202;16.334;2023-03-11T08:57:23;97565.41;;;11.20;32.73
40155;BME280;25875;48.202;16.334;2023-03-11T08:59:50;97567.06;;;11.21;32.45
40155;BME280;25875;48.202;16.334;2023-03-11T09:02:18;97461.13;;;10.38;32.16
40155;BME280;25875;48.202;16.334;2023-03-11T09:04:46;97555.53;;;11.02;32.71
40155;BME280;25875;48.202;16.334;2023-03-11T09:07:13;97560.38;;;10.97;32.83
40155;BME280;25875;48.202;16.334;2023-03-11T09:09:40;97525.97;;;10.65;32.71
40155;BME280;25875;48.202;16.334;2023-03-11T09:12:07;97606.22;;;11.08;32.26
40155;BME280;25875;48.202;16.334;2023-03-11T09:14:38;97566.84;;;11.04;31.87
40155;BME280;25875;48.202;16.334;2023-03-11T09:17:05;97612.81;;;10.93;32.45
40155;BME280;25875;48.202;16.334;2023-03-11T09:19:33;97595.16;;;10.82;32.00
40155;BME280;25875;48.202;16.334;2023-03-11T09:22:01;97600.28;;;10.63;32.25
40155;BME280;25875;48.202;16.334;2023-03-11T09:24:28;97629.59;;;10.50;32.45
40155;BME280;25875;48.202;16.334;2023-03-11T09:26:58;97608.41;;;10.50;32.45
40155;BME280;25875;48.202;16.334;2023-03-11T09:29:24;97625.59;;;10.56;32.06
40155;BME280;25875;48.202;16.334;2023-03-11T09:31:52;97569.13;;;9.91;32.30
40155;BME280;25875;48.202;16.334;2023-03-11T09:34:19;97638.59;;;10.16;32.26
40155;BME280;25875;48.202;16.334;2023-03-11T09:36:47;97579.50;;;9.61;32.58
40155;BME280;25875;48.202;16.334;2023-03-11T09:39:14;97629.72;;;9.94;33.12
40155;BME280;25875;48.202;16.334;2023-03-11T09:41:45;97656.09;;;9.85;31.91
40155;BME280;25875;48.202;16.334;2023-03-11T09:44:17;97658.13;;;9.70;32.21
40155;BME280;25875;48.202;16.334;2023-03-11T09:47:16;97668.94;;;9.67;31.37
40155;BME280;25875;48.202;16.334;2023-03-11T09:50:02;97637.16;;;9.34;31.67
40155;BME280;25875;48.202;16.334;2023-03-11T09:52:39;97682.50;;;9.40;32.81
40155;BME280;25875;48.202;16.334;2023-03-11T09:55:22;97548.44;;;8.50;32.91
40155;BME280;25875;48.202;16.334;2023-03-11T09:57:51;97705.03;;;9.22;33.87
40155;BME280;25875;48.202;16.334;2023-03-11T10:00:20;97701.81;;;9.06;33.81
40155;BME280;25875;48.202;16.334;2023-03-11T10:02:48;97721.81;;;8.86;33.76
40155;BME280;25875;48.202;16.334;2023-03-11T10:05:19;97692.75;;;8.62;33.74
40155;BME280;25875;48.202;16.334;2023-03-11T10:07:53;97724.34;;;8.63;33.44
40155;BME280;25875;48.202;16.334;2023-03-11T10:10:26;97682.41;;;8.35;33.95
40155;BME280;25875;48.202;16.334;2023-03-11T10:13:00;97730.50;;;8.51;33.93
40155;BME280;25875;48.202;16.334;2023-03-11T10:15:38;97644.69;;;7.85;33.74
40155;BME280;25875;48.202;16.334;2023-03-11T10:18:23;97738.13;;;8.43;33.19
40155;BME280;25875;48.202;16.334;2023-03-11T10:20:54;97739.13;;;8.29;33.37
40155;BME280;25875;48.202;16.334;2023-03-11T10:23:36;97757.38;;;8.32;34.25
40155;BME280;25875;48.202;16.334;2023-03-11T10:26:13;97707.25;;;7.83;34.55
40155;BME280;25875;48.202;16.334;2023-03-11T10:28:44;97771.66;;;8.30;34.67
40155;BME280;25875;48.202;16.334;2023-03-11T10:31:21;97763.00;;;8.28;34.20
40155;BME280;25875;48.202;16.334;2023-03-11T10:33:54;97769.22;;;8.27;34.44
40155;BME280;25875;48.202;16.334;2023-03-11T10:36:23;97775.13;;;8.30;34.86
40155;BME280;25875;48.202;16.334;2023-03-11T10:38:54;97721.16;;;7.98;34.64
40155;BME280;25875;48.202;16.334;2023-03-11T10:41:26;97733.81;;;8.06;34.64
40155;BME280;25875;48.202;16.334;2023-03-11T10:44:01;97743.53;;;7.92;34.66
40155;BME280;25875;48.202;16.334;2023-03-11T10:46:29;97794.78;;;8.26;34.82
40155;BME280;25875;48.202;16.334;2023-03-11T10:48:56;97798.69;;;8.21;34.85
40155;BME280;25875;48.202;16.334;2023-03-11T10:51:26;97801.75;;;8.15;34.60
40155;BME280;25875;48.202;16.334;2023-03-11T10:53:56;97812.00;;;8.07;34.08
40155;BME280;25875;48.202;16.334;2023-03-11T10:56:26;97816.75;;;8.01;34.47
40155;BME280;25875;48.202;16.334;2023-03-11T10:58:53;97808.22;;;7.98;34.64
40155;BME280;25875;48.202;16.334;2023-03-11T11:01:21;97820.13;;;8.03;34.62
40155;BME280;25875;48.202;16.334;2023-03-11T11:03:49;97823.94;;;7.99;34.67
40155;BME280;25875;48.202;16.334;2023-03-11T11:06:24;97748.81;;;7.54;34.16
40155;BME280;25875;48.202;16.334;2023-03-11T11:09:13;97838.50;;;8.05;33.35
40155;BME280;25875;48.202;16.334;2023-03-11T11:11:41;97844.09;;;8.13;33.87
40155;BME280;25875;48.202;16.334;2023-03-11T11:14:09;97835.50;;;8.35;33.96
40155;BME280;25875;48.202;16.334;2023-03-11T11:16:36;97764.72;;;8.16;33.62
40155;BME280;25875;48.202;16.334;2023-03-11T11:19:07;97832.63;;;8.63;33.16
40155;BME280;25875;48.202;16.334;2023-03-11T11:21:38;97830.44;;;8.81;33.22
40155;BME280;25875;48.202;16.334;2023-03-11T11:24:24;97824.91;;;8.97;31.65
40155;BME280;25875;48.202;16.334;2023-03-11T11:27:04;97761.03;;;8.79;32.55
40155;BME280;25875;48.202;16.334;2023-03-11T11:29:32;97809.16;;;9.19;33.15
40155;BME280;25875;48.202;16.334;2023-03-11T11:32:16;97820.31;;;9.36;32.06
40155;BME280;25875;48.202;16.334;2023-03-11T11:34:52;97766.47;;;9.13;31.99
40155;BME280;25875;48.202;16.334;2023-03-11T11:37:19;97823.66;;;9.50;33.24
40155;BME280;25875;48.202;16.334;2023-03-11T11:39:51;97708.72;;;8.60;32.76
40155;BME280;25875;48.202;16.334;2023-03-11T11:42:19;97829.94;;;9.37;33.03
40155;BME280;25875;48.202;16.334;2023-03-11T11:44:48;97830.59;;;9.27;33.21
40155;BME280;25875;48.202;16.334;2023-03-11T11:47:19;97838.22;;;9.19;33.17
40155;BME280;25875;48.202;16.334;2023-03-11T11:49:51;97859.53;;;9.05;33.03
40155;BME280;25875;48.202;16.334;2023-03-11T11:52:22;97797.44;;;8.63;33.45
40155;BME280;25875;48.202;16.334;2023-03-11T11:54:57;97834.38;;;8.76;32.79
40155;BME280;25875;48.202;16.334;2023-03-11T11:57:27;97839.59;;;8.64;33.42
40155;BME280;25875;48.202;16.334;2023-03-11T11:59:54;97851.66;;;8.56;33.53
40155;BME280;25875;48.202;16.334;2023-03-11T12:02:40;97845.22;;;8.47;32.34
40155;BME280;25875;48.202;16.334;2023-03-11T12:05:15;97853.13;;;8.47;32.98
40155;BME280;25875;48.202;16.334;2023-03-11T12:08:03;97772.44;;;7.81;32.18
40155;BME280;25875;48.202;16.334;2023-03-11T12:10:38;97600.91;;;6.68;32.55
40155;BME280;25875;48.202;16.334;2023-03-11T12:13:43;97879.22;;;8.39;32.48
40155;BME280;25875;48.202;16.334;2023-03-11T12:16:22;97830.03;;;8.13;32.64
40155;BME280;25875;48.202;16.334;2023-03-11T12:18:57;97873.53;;;8.32;33.13
40155;BME280;25875;48.202;16.334;2023-03-11T12:21:40;97838.28;;;8.08;32.53
40155;BME280;25875;48.202;16.334;2023-03-11T12:24:24;97746.06;;;7.43;32.48
40155;BME280;25875;48.202;16.334;2023-03-11T12:27:03;97876.81;;;8.23;33.22
40155;BME280;25875;48.202;16.334;2023-03-11T12:29:34;97874.16;;;7.98;33.49
40155;BME280;25875;48.202;16.334;2023-03-11T12:32:02;97823.59;;;7.79;33.76
40155;BME280;25875;48.202;16.334;2023-03-11T12:34:30;97836.25;;;7.74;33.63
40155;BME280;25875;48.202;16.334;2023-03-11T12:36:59;97825.56;;;7.50;33.77
40155;BME280;25875;48.202;16.334;2023-03-11T12:39:29;97891.56;;;8.00;33.98
40155;BME280;25875;48.202;16.334;2023-03-11T12:42:18;97902.44;;;7.96;33.27
40155;BME280;25875;48.202;16.334;2023-03-11T12:44:47;97916.88;;;7.90;34.06
40155;BME280;25875;48.202;16.334;2023-03-11T12:47:24;97915.41;;;7.86;33.67
40155;BME280;25875;48.202;16.334;2023-03-11T12:49:54;97927.94;;;7.83;34.17
40155;BME280;25875;48.202;16.334;2023-03-11T12:52:27;97850.53;;;7.44;34.03
40155;BME280;25875;48.202;16.334;2023-03-11T12:58:43;97926.66;;;7.76;33.87
40155;BME280;25875;48.202;16.334;2023-03-11T13:01:36;97744.16;;;6.52;34.08
40155;BME280;25875;48.202;16.334;2023-03-11T13:04:28;97947.94;;;7.60;34.09
40155;BME280;25875;48.202;16.334;2023-03-11T13:10:01;97947.56;;;7.52;34.61
40155;BME280;25875;48.202;16.334;2023-03-11T13:12:39;97721.34;;;6.11;34.63
40155;BME280;25875;48.202;16.334;2023-03-11T13:15:38;97918.00;;;7.34;34.88
40155;BME280;25875;48.202;16.334;2023-03-11T13:18:17;97966.59;;;7.57;35.07
40155;BME280;25875;48.202;16.334;2023-03-11T13:20:50;97963.00;;;7.58;34.97